Time;durP1;ratioP1;P1;durP2;ratioP2;P2;SDS_P1;SDS_P2;PMS_P1;PMS_P2;Temp;Humidity;BMP_temperature;BMP_pressure;BME280_temperature;BME280_humidity;BME280_pressure;Samples;Min_cycle;Max_cycle;Signal;HPM_P1;HPM_P2
2022/08/29 00:00:26;;;;;;;4.97;2.28;;;;;;;18.23;59.36;100935.47;4975051;28;20052;-41
2022/08/29 00:02:55;;;;;;;3.38;2.30;;;;;;;18.22;59.29;100928.53;4980004;28;20102;-38
2022/08/29 00:05:28;;;;;;;3.47;2.05;;;;;;;18.22;59.38;100922.41;4978387;28;20046;-43
2022/08/29 00:07:57;;;;;;;3.60;2.17;;;;;;;18.20;59.17;100929.41;4966767;28;20137;-49
2022/08/29 00:10:25;;;;;;;;;;;;;;;17.99;59.51;100937.69;4980943;28;20038;-43
2022/08/29 00:12:53;;;;;;;4.70;2.25;;;;;;;18.13;59.21;100936.56;4980205;28;19921;-42
2022/08/29 00:15:25;;;;;;;11.98;3.42;;;;;;;18.13;58.82;100939.19;4983019;28;20534;-42
2022/08/29 00:17:53;;;;;;;;;;;;;;;17.91;59.61;100939.59;4978938;28;20054;-40
2022/08/29 00:20:23;;;;;;;3.00;2.22;;;;;;;18.06;58.90;100942.78;4982891;28;19965;-42
2022/08/29 00:23:01;;;;;;;4.15;1.95;;;;;;;18.04;58.94;100944.59;4987322;28;20157;-39
2022/08/29 00:25:29;;;;;;;4.53;2.47;;;;;;;18.02;59.25;100942.00;4977458;28;20726;-38
2022/08/29 00:27:56;;;;;;;3.05;2.33;;;;;;;18.02;59.70;100943.72;4980517;28;20534;-43
2022/08/29 00:30:23;;;;;;;4.85;2.63;;;;;;;18.01;59.72;100939.38;4982232;28;20050;-40
2022/08/29 00:32:51;;;;;;;4.45;2.22;;;;;;;18.01;59.15;100939.38;4978200;28;20604;-37
2022/08/29 00:35:23;;;;;;;3.28;2.90;;;;;;;18.01;60.07;100939.38;4976626;28;20054;-45
2022/08/29 00:37:50;;;;;;;4.30;2.58;;;;;;;17.99;59.68;100942.91;4980668;28;20050;-43
2022/08/29 00:40:23;;;;;;;3.67;1.15;;;;;;;17.99;60.22;100942.91;4976497;28;20439;-40
2022/08/29 00:42:49;;;;;;;2.70;2.47;;;;;;;17.98;59.42;100950.81;4987019;28;20050;-39
2022/08/29 00:45:17;;;;;;;5.07;2.50;;;;;;;17.96;60.33;100942.97;4981255;28;20149;-41
2022/08/29 00:47:50;;;;;;;3.50;2.38;;;;;;;17.94;59.92;100949.13;4981728;28;20042;-39
2022/08/29 00:50:23;;;;;;;3.72;2.70;;;;;;;17.89;60.54;100946.59;4977298;28;20078;-40
2022/08/29 00:52:51;;;;;;;3.97;2.55;;;;;;;17.85;60.33;100950.16;4981637;28;20073;-39
2022/08/29 00:55:21;;;;;;;4.72;2.20;;;;;;;17.84;60.65;100948.44;4981598;28;20065;-41
2022/08/29 00:57:55;;;;;;;6.10;3.42;;;;;;;17.80;60.33;100945.00;4978941;28;20073;-43
2022/08/29 01:00:24;;;;;;;3.55;2.38;;;;;;;17.77;60.37;100955.56;4976442;28;20851;-42
2022/08/29 01:02:53;;;;;;;3.10;2.25;;;;;;;17.75;60.54;100956.47;4978035;28;20046;-41
2022/08/29 01:05:20;;;;;;;2.97;1.40;;;;;;;17.73;60.36;100952.13;4978441;28;20513;-46
2022/08/29 01:07:48;;;;;;;5.43;2.72;;;;;;;17.73;60.79;100957.34;4984897;28;20054;-44
2022/08/29 01:13:05;;;;;;;4.53;2.25;;;;;;;17.71;61.00;100953.91;4976727;28;20054;-45
2022/08/29 01:15:33;;;;;;;6.32;2.72;;;;;;;17.66;61.25;100960.13;4979437;28;20080;-43
2022/08/29 01:18:01;;;;;;;3.60;2.95;;;;;;;17.59;61.07;100954.13;4978464;28;20184;-41
2022/08/29 01:20:45;;;;;;;3.38;2.55;;;;;;;17.50;61.21;100956.91;4977887;28;20050;-41
2022/08/29 01:25:54;;;;;;;3.78;1.67;;;;;;;17.38;61.82;100952.72;5004355;27;20401;-41
2022/08/29 01:28:25;;;;;;;2.88;1.45;;;;;;;17.36;61.15;100958.00;4978096;28;20079;-42
2022/08/29 01:33:39;;;;;;;2.38;1.25;;;;;;;17.37;61.05;100958.88;5053652;28;20403;-44
2022/08/29 01:36:07;;;;;;;3.08;1.38;;;;;;;17.35;61.04;100961.50;5008173;28;20122;-40
2022/08/29 01:38:33;;;;;;;4.90;1.52;;;;;;;17.36;61.32;100958.00;5005265;28;20054;-42
2022/08/29 01:41:01;;;;;;;2.75;1.33;;;;;;;17.37;61.53;100961.47;5006556;28;20050;-41
2022/08/29 01:43:28;;;;;;;4.78;1.17;;;;;;;17.36;61.68;100960.59;4998384;28;20054;-44
2022/08/29 01:45:56;;;;;;;3.25;1.73;;;;;;;17.36;61.77;100963.22;5014168;28;20100;-42
2022/08/29 01:48:23;;;;;;;3.03;1.50;;;;;;;17.36;61.25;100963.22;4998922;28;20097;-42
2022/08/29 01:50:50;;;;;;;5.70;1.75;;;;;;;17.37;61.43;100964.09;4998441;28;20109;-42
2022/08/29 01:53:18;;;;;;;4.00;2.08;;;;;;;17.37;61.16;100962.34;5005238;28;20053;-40
2022/08/29 01:55:44;;;;;;;5.47;1.48;;;;;;;17.37;61.91;100966.72;5001846;28;20061;-44
2022/08/29 01:58:11;;;;;;;4.40;1.77;;;;;;;17.36;61.47;100973.69;5002961;28;20054;-45
2022/08/29 02:00:38;;;;;;;8.32;2.13;;;;;;;17.33;62.20;100973.78;4999763;28;20046;-42
2022/08/29 02:03:06;;;;;;;3.17;1.50;;;;;;;17.31;61.87;100975.53;5005249;28;20045;-43
2022/08/29 02:05:33;;;;;;;5.40;2.00;;;;;;;17.30;62.14;100979.06;5006736;28;20046;-40
2022/08/29 02:07:59;;;;;;;4.32;1.90;;;;;;;17.25;61.96;100975.66;5002904;28;20049;-43
2022/08/29 02:10:26;;;;;;;4.00;1.80;;;;;;;17.23;62.04;100966.94;5011808;28;20058;-44
2022/08/29 02:12:53;;;;;;;3.38;1.55;;;;;;;17.21;62.23;100969.59;5003670;28;20046;-44
2022/08/29 02:15:20;;;;;;;3.63;2.13;;;;;;;17.19;62.75;100972.22;4996226;28;20517;-38
2022/08/29 02:17:47;;;;;;;3.85;1.73;;;;;;;17.17;62.26;100963.53;4997152;28;20126;-42
2022/08/29 02:20:14;;;;;;;4.53;1.95;;;;;;;17.15;62.39;100975.78;5003201;28;20054;-46
2022/08/29 02:22:41;;;;;;;5.93;2.25;;;;;;;17.14;62.96;100978.41;5004894;28;20116;-40
2022/08/29 02:27:57;;;;;;;4.85;2.13;;;;;;;17.10;62.13;100969.75;5000059;28;20057;-41
2022/08/29 02:30:24;;;;;;;6.40;2.00;;;;;;;17.09;63.03;100970.63;4998151;28;20054;-42
2022/08/29 02:32:51;;;;;;;4.72;1.70;;;;;;;17.09;62.55;100973.25;4996028;28;20046;-41
2022/08/29 02:35:18;;;;;;;5.32;1.80;;;;;;;17.07;62.74;100975.91;4998515;28;20037;-39
2022/08/29 02:37:44;;;;;;;5.88;2.25;;;;;;;17.06;62.88;100971.53;4993636;28;20108;-44
2022/08/29 02:40:11;;;;;;;5.80;2.53;;;;;;;17.05;62.56;100969.81;5010311;28;20418;-43
2022/08/29 02:42:38;;;;;;;6.38;2.13;;;;;;;17.04;62.90;100967.19;4999327;28;20129;-40
2022/08/29 02:45:05;;;;;;;5.03;2.00;;;;;;;17.02;62.41;100968.97;4989403;28;20061;-41
2022/08/29 02:47:35;;;;;;;8.48;1.80;;;;;;;17.02;63.08;100975.06;4988671;28;20065;-43
2022/08/29 02:50:05;;;;;;;4.97;2.20;;;;;;;17.00;63.03;100975.97;4983738;28;20049;-44
2022/08/29 02:52:31;;;;;;;;;;;;;;;16.78;63.21;100971.03;4986038;28;20043;-45
2022/08/29 02:55:03;;;;;;;4.00;1.48;;;;;;;16.91;63.05;100983.06;4990707;28;20009;-41
2022/08/29 02:57:29;;;;;;;5.25;2.28;;;;;;;16.92;62.70;100979.56;4986299;28;20585;-42
2022/08/29 02:59:56;;;;;;;7.90;2.15;;;;;;;16.92;62.86;100990.03;4980919;28;20046;-39
2022/08/29 03:02:22;;;;;;;4.85;1.95;;;;;;;16.91;62.79;100990.94;4986380;28;20057;-41
2022/08/29 03:04:49;;;;;;;8.48;1.83;;;;;;;16.88;63.44;100988.34;4991391;28;20096;-40
2022/08/29 03:07:16;;;;;;;3.50;1.92;;;;;;;16.85;62.58;100987.53;4990143;28;20058;-43
2022/08/29 03:09:43;;;;;;;6.13;2.13;;;;;;;16.84;62.81;100981.44;4992496;28;20046;-41
2022/08/29 03:12:10;;;;;;;8.38;2.17;;;;;;;16.85;62.66;100977.91;4993533;28;20046;-38
2022/08/29 03:14:36;;;;;;;5.85;2.15;;;;;;;16.82;63.06;100978.84;4995228;28;20053;-44
2022/08/29 03:17:03;;;;;;;3.85;1.75;;;;;;;16.80;63.22;100975.38;4983080;28;20430;-45
2022/08/29 03:19:30;;;;;;;5.07;2.00;;;;;;;16.78;63.06;100977.16;4988106;28;20109;-41
2022/08/29 03:22:02;;;;;;;4.50;2.47;;;;;;;16.78;63.40;100968.41;4985246;28;20423;-40
2022/08/29 03:24:29;;;;;;;4.72;2.00;;;;;;;16.78;63.02;100976.28;4996161;28;20050;-39
2022/08/29 03:26:56;;;;;;;9.25;2.58;;;;;;;16.78;63.45;100971.03;4979769;28;20136;-44
2022/08/29 03:29:24;;;;;;;3.35;2.00;;;;;;;16.78;63.81;100973.66;4977816;28;20108;-42
2022/08/29 03:31:51;;;;;;;6.93;2.20;;;;;;;16.77;63.64;100967.56;4979488;28;20046;-44
2022/08/29 03:34:18;;;;;;;6.97;2.85;;;;;;;16.78;63.47;100963.19;4982381;28;21220;-41
2022/08/29 03:36:44;;;;;;;4.20;2.33;;;;;;;16.78;63.28;100961.44;4978113;28;20617;-38
2022/08/29 03:39:11;;;;;;;4.95;2.40;;;;;;;16.78;63.80;100965.81;4981233;28;20116;-39
2022/08/29 03:41:37;;;;;;;6.30;2.22;;;;;;;16.79;63.24;100964.94;4980753;28;20057;-44
2022/08/29 03:44:04;;;;;;;4.50;3.20;;;;;;;16.78;64.30;100969.31;4980728;28;20544;-41
2022/08/29 03:46:31;;;;;;;6.07;2.22;;;;;;;16.78;63.84;100961.44;4983314;28;20050;-44
2022/08/29 03:48:57;;;;;;;5.45;1.83;;;;;;;16.79;63.65;100967.56;4982625;28;20090;-42
2022/08/29 03:51:24;;;;;;;3.70;1.77;;;;;;;16.79;64.25;100968.41;4979698;28;20054;-44
2022/08/29 03:53:55;;;;;;;5.97;2.28;;;;;;;16.79;63.78;100963.19;4992672;28;20042;-49
2022/08/29 03:56:21;;;;;;;4.15;1.55;;;;;;;16.79;63.95;100957.09;4986401;28;20940;-39
2022/08/29 03:58:49;;;;;;;4.43;1.95;;;;;;;16.79;63.63;100962.31;4994770;28;20104;-41
2022/08/29 04:01:23;;;;;;;3.63;2.08;;;;;;;16.78;63.89;100960.56;4980260;28;20058;-39
2022/08/29 04:03:50;;;;;;;5.60;2.38;;;;;;;16.78;63.60;100960.56;4989936;28;20061;-44
2022/08/29 04:06:17;;;;;;;6.00;1.90;;;;;;;16.80;63.76;100964.06;4988737;28;20062;-39
2022/08/29 04:08:48;;;;;;;5.60;2.08;;;;;;;16.81;63.58;100965.78;4986175;28;20046;-44
2022/08/29 04:11:17;;;;;;;5.70;2.30;;;;;;;16.83;63.61;100964.84;4997237;28;20058;-40
2022/08/29 04:13:43;;;;;;;4.03;1.80;;;;;;;16.81;63.76;100961.41;4991817;28;20058;-39
2022/08/29 04:16:13;;;;;;;4.93;2.38;;;;;;;16.84;63.96;100968.34;4989470;28;20108;-40
2022/08/29 04:18:40;;;;;;;6.68;2.03;;;;;;;16.85;63.88;100967.47;4991842;28;20061;-40
2022/08/29 04:21:08;;;;;;;7.00;2.40;;;;;;;16.85;64.13;100967.47;4994541;28;20054;-39
2022/08/29 04:23:37;;;;;;;4.68;1.75;;;;;;;16.87;64.10;100968.31;4990241;28;20109;-41
2022/08/29 04:26:04;;;;;;;5.47;1.95;;;;;;;16.88;63.94;100966.56;4988883;28;20042;-42
2022/08/29 04:28:51;;;;;;;5.82;2.08;;;;;;;16.88;64.18;100967.41;4989387;28;20435;-39
2022/08/29 04:31:19;;;;;;;4.05;1.88;;;;;;;16.90;64.52;100977.88;4991894;28;20046;-42
2022/08/29 04:33:47;;;;;;;6.15;2.55;;;;;;;16.90;64.20;100973.50;4988477;28;20441;-41
2022/08/29 04:36:14;;;;;;;6.15;1.75;;;;;;;16.91;63.73;100980.47;4989743;28;20050;-39
2022/08/29 04:38:41;;;;;;;4.88;2.15;;;;;;;16.93;64.07;100981.28;4988451;28;20057;-40
2022/08/29 04:41:13;;;;;;;8.77;2.30;;;;;;;16.94;64.62;100980.44;4986761;28;20115;-41
2022/08/29 04:43:41;;;;;;;5.65;1.98;;;;;;;16.95;63.94;100981.28;4987415;28;20054;-40
2022/08/29 04:46:08;;;;;;;6.72;1.58;;;;;;;16.94;64.19;100983.03;4981366;28;20050;-42
2022/08/29 04:48:49;;;;;;;6.45;1.80;;;;;;;16.92;63.73;100982.19;4991096;28;20050;-45
2022/08/29 04:51:15;;;;;;;3.65;1.70;;;;;;;16.91;64.25;100977.84;4988232;28;20054;-41
2022/08/29 04:53:42;;;;;;;3.80;2.00;;;;;;;16.91;64.45;100976.97;4983623;28;20042;-39
2022/08/29 04:56:11;;;;;;;4.30;1.42;;;;;;;16.91;64.65;100976.97;4997527;28;20452;-47
2022/08/29 04:58:39;;;;;;;4.05;1.90;;;;;;;16.89;64.22;100984.84;4984361;28;20051;-41
2022/08/29 05:01:12;;;;;;;3.55;1.65;;;;;;;16.90;64.15;100980.47;4993294;28;20045;-40
2022/08/29 05:03:39;;;;;;;4.70;1.70;;;;;;;16.89;64.78;100984.00;4987127;28;20585;-39
2022/08/29 05:06:09;;;;;;;7.55;2.05;;;;;;;16.90;64.47;100989.22;4986272;28;20096;-42
2022/08/29 05:08:38;;;;;;;5.15;2.17;;;;;;;16.89;64.49;100990.06;4983636;28;20504;-47
2022/08/29 05:11:09;;;;;;;4.35;2.05;;;;;;;16.86;64.73;100995.38;4985660;28;20097;-41
2022/08/29 05:13:36;;;;;;;5.82;2.38;;;;;;;16.83;64.86;100998.03;4988907;28;20062;-41
2022/08/29 05:16:05;;;;;;;6.22;2.58;;;;;;;16.82;64.54;100994.53;4976881;28;20054;-42
2022/08/29 05:18:32;;;;;;;4.63;2.22;;;;;;;16.79;64.72;100998.94;4976957;28;20046;-40
2022/08/29 05:20:58;;;;;;;3.85;2.10;;;;;;;16.79;64.45;100993.72;4983158;28;20042;-42
2022/08/29 05:23:25;;;;;;;4.88;2.03;;;;;;;16.78;64.71;100991.97;4981193;28;20046;-40
2022/08/29 05:25:58;;;;;;;6.90;2.28;;;;;;;16.77;64.52;101001.59;4994739;28;20097;-45
2022/08/29 05:28:25;;;;;;;7.13;1.90;;;;;;;16.79;64.35;101001.56;4984522;28;20105;-39
2022/08/29 05:30:52;;;;;;;5.38;2.22;;;;;;;16.80;64.81;101004.16;4994492;28;20053;-44
2022/08/29 05:33:19;;;;;;;5.28;1.98;;;;;;;16.83;64.72;101003.25;4990556;28;20037;-41
2022/08/29 05:35:46;;;;;;;4.85;1.60;;;;;;;16.84;64.81;101004.97;4984695;28;20453;-45
2022/08/29 05:38:13;;;;;;;7.07;2.92;;;;;;;16.88;64.98;101004.03;4986117;28;20682;-39
2022/08/29 05:40:41;;;;;;;4.32;2.03;;;;;;;16.86;64.75;101003.22;4985523;28;20446;-42
2022/08/29 05:43:09;;;;;;;3.85;1.70;;;;;;;16.87;65.20;101006.69;4987666;28;20050;-46
2022/08/29 05:45:37;;;;;;;4.57;1.63;;;;;;;16.86;65.31;101005.84;4985307;28;20552;-45
2022/08/29 05:48:06;;;;;;;3.13;1.88;;;;;;;16.87;64.92;101010.16;4993375;28;20046;-43
2022/08/29 05:50:42;;;;;;;5.25;1.65;;;;;;;16.85;65.50;101004.09;4987422;28;20053;-41
2022/08/29 05:53:11;;;;;;;4.07;1.85;;;;;;;16.87;65.56;101012.78;4986492;28;20490;-38
2022/08/29 05:55:39;;;;;;;;;;;;;;;16.72;65.78;101006.00;4982142;28;20533;-43
2022/08/29 05:58:06;;;;;;;3.88;1.52;;;;;;;16.87;64.88;101007.56;4993335;28;19921;-41
2022/08/29 06:00:33;;;;;;;4.53;1.90;;;;;;;16.91;65.27;101009.25;4985179;28;20054;-39
2022/08/29 06:03:00;;;;;;;4.78;1.73;;;;;;;16.92;65.27;101002.28;4985450;28;20050;-42
2022/08/29 06:05:26;;;;;;;5.82;1.75;;;;;;;16.92;64.81;101005.72;4985708;28;20128;-39
2022/08/29 06:07:53;;;;;;;3.33;1.83;;;;;;;16.94;64.80;101006.59;4982901;28;20565;-39
2022/08/29 06:10:20;;;;;;;5.68;1.80;;;;;;;16.95;64.96;101005.69;4985138;28;20446;-39
2022/08/29 06:12:46;;;;;;;4.00;1.40;;;;;;;16.95;65.24;101015.28;4989019;28;20054;-40
2022/08/29 06:15:13;;;;;;;6.47;1.50;;;;;;;16.94;65.63;101013.56;4984431;28;20050;-40
2022/08/29 06:17:40;;;;;;;3.05;1.35;;;;;;;16.93;65.62;101017.91;4988884;28;20423;-42
2022/08/29 06:20:08;;;;;;;6.13;1.70;;;;;;;16.91;65.73;101014.47;4990472;28;20324;-41
2022/08/29 06:22:37;;;;;;;4.97;1.70;;;;;;;16.91;65.85;101009.25;4989752;28;20046;-41
2022/08/29 06:25:07;;;;;;;4.53;1.75;;;;;;;16.89;66.29;101016.22;4985567;28;20054;-41
2022/08/29 06:27:54;;;;;;;5.57;1.77;;;;;;;16.88;66.75;101024.13;4987739;28;20125;-42
2022/08/29 06:30:20;;;;;;;3.70;2.00;;;;;;;16.89;66.04;101024.09;4991146;28;20050;-43
2022/08/29 06:32:47;;;;;;;3.75;1.48;;;;;;;16.93;66.58;101017.91;4989022;28;20446;-41
2022/08/29 06:35:14;;;;;;;3.80;1.92;;;;;;;16.96;66.82;101028.34;4990575;28;20121;-43
2022/08/29 06:37:41;;;;;;;3.97;1.50;;;;;;;16.99;66.51;101031.81;4987691;28;20058;-39
2022/08/29 06:40:08;;;;;;;5.85;3.00;;;;;;;17.02;66.23;101026.56;4995024;28;20583;-44
2022/08/29 06:42:35;;;;;;;4.97;1.67;;;;;;;17.01;66.59;101030.03;4987319;28;20053;-39
2022/08/29 06:45:03;;;;;;;2.75;1.73;;;;;;;17.05;67.09;101031.72;4989016;28;20105;-41
2022/08/29 06:47:30;;;;;;;3.08;1.60;;;;;;;17.09;66.59;101028.22;4988243;28;20096;-42
2022/08/29 06:49:57;;;;;;;4.82;1.70;;;;;;;17.12;67.13;101028.16;4990656;28;20061;-46
2022/08/29 06:52:23;;;;;;;2.95;1.40;;;;;;;17.15;66.95;101033.38;4985736;28;20054;-45
2022/08/29 06:54:50;;;;;;;3.97;2.00;;;;;;;17.19;66.60;101034.19;4983632;28;20045;-42
2022/08/29 06:57:18;;;;;;;3.80;1.48;;;;;;;17.24;66.51;101024.53;4984829;28;20049;-45
2022/08/29 06:59:44;;;;;;;3.25;1.50;;;;;;;17.29;67.00;101027.91;4998210;28;20076;-48
2022/08/29 07:02:11;;;;;;;5.65;1.80;;;;;;;17.36;67.07;101028.69;4987069;28;20537;-40
2022/08/29 07:04:38;;;;;;;3.35;1.42;;;;;;;17.39;67.06;101020.78;4980441;28;20092;-42
2022/08/29 07:07:05;;;;;;;3.42;1.60;;;;;;;17.45;66.84;101025.94;4991723;28;20518;-41
2022/08/29 07:09:32;;;;;;;5.28;1.63;;;;;;;17.50;66.52;101025.88;4986522;28;20050;-41
2022/08/29 07:11:59;;;;;;;3.47;1.00;;;;;;;17.55;66.26;101031.91;4982906;28;20050;-40
2022/08/29 07:14:26;;;;;;;2.25;1.50;;;;;;;17.60;66.40;101034.44;4990128;28;20592;-39
2022/08/29 07:16:55;;;;;;;2.67;1.58;;;;;;;17.65;66.43;101026.50;4988035;28;20045;-40
2022/08/29 07:19:22;;;;;;;2.70;1.05;;;;;;;17.72;65.63;101039.47;4988509;28;20054;-46
2022/08/29 07:21:48;;;;;;;2.47;1.30;;;;;;;17.78;65.79;101033.28;4990050;28;20050;-44
2022/08/29 07:24:15;;;;;;;2.40;1.05;;;;;;;17.86;66.60;101036.63;4985943;28;20091;-42
2022/08/29 07:26:44;;;;;;;3.38;0.90;;;;;;;17.89;65.16;101035.69;4980653;28;20046;-43
2022/08/29 07:29:15;;;;;;;2.75;1.27;;;;;;;17.87;65.24;101032.25;4984898;28;20054;-44
2022/08/29 07:31:42;;;;;;;1.85;0.80;;;;;;;17.81;65.13;101027.97;4978083;28;20503;-39
2022/08/29 07:34:09;;;;;;;4.25;0.98;;;;;;;17.80;65.34;101035.88;4982814;28;20112;-44
2022/08/29 07:36:36;;;;;;;2.25;1.20;;;;;;;17.78;65.72;101028.03;4989668;28;20503;-43
2022/08/29 07:39:07;;;;;;;2.65;0.88;;;;;;;17.83;65.19;101034.03;4989652;28;20136;-40
2022/08/29 07:41:34;;;;;;;1.95;0.88;;;;;;;17.90;65.15;101034.78;4990650;28;20403;-44
2022/08/29 07:44:01;;;;;;;1.60;0.80;;;;;;;18.06;64.96;101042.38;4974503;28;20061;-41
2022/08/29 07:46:28;;;;;;;3.42;0.63;;;;;;;18.16;63.95;101038.75;4985099;28;20050;-39
2022/08/29 07:48:56;;;;;;;2.05;0.80;;;;;;;18.31;63.44;101044.59;4982784;28;20057;-40
2022/08/29 07:51:24;;;;;;;3.00;1.20;;;;;;;18.49;62.74;101046.88;4995916;28;20115;-42
2022/08/29 07:53:51;;;;;;;1.98;0.80;;;;;;;18.77;63.35;101045.41;4991208;28;20042;-39
2022/08/29 07:56:21;;;;;;;3.10;0.70;;;;;;;19.11;61.96;101033.34;4990001;28;20046;-39
2022/08/29 07:58:50;;;;;;;7.25;1.05;;;;;;;19.38;60.69;101049.34;4979655;28;20043;-40
2022/08/29 08:01:16;;;;;;;2.85;0.60;;;;;;;19.60;59.47;101048.84;4996723;28;20703;-42
2022/08/29 08:03:48;;;;;;;2.55;0.80;;;;;;;19.86;59.52;101036.81;4994259;28;20058;-42
2022/08/29 08:06:21;;;;;;;1.25;0.70;;;;;;;20.13;58.84;101037.88;4995448;28;20046;-46
2022/08/29 08:08:49;;;;;;;4.00;1.02;;;;;;;20.89;58.83;101039.28;4987706;28;20654;-41
2022/08/29 08:11:19;;;;;;;1.80;0.60;;;;;;;21.40;57.79;101036.84;4997055;28;20050;-39
2022/08/29 08:13:46;;;;;;;3.67;0.50;;;;;;;21.85;55.91;101039.81;4987974;28;20038;-41
2022/08/29 08:16:17;;;;;;;2.35;0.75;;;;;;;22.15;55.25;101031.75;4991483;28;20514;-42
2022/08/29 08:18:45;;;;;;;3.33;0.70;;;;;;;22.27;54.63;101041.84;4976118;28;20050;-43
2022/08/29 08:21:12;;;;;;;2.15;0.75;;;;;;;22.28;53.78;101038.28;5003107;28;20056;-46
2022/08/29 08:23:40;;;;;;;4.47;0.63;;;;;;;22.26;53.61;101044.53;4992953;28;20478;-44
2022/08/29 08:26:08;;;;;;;2.65;0.90;;;;;;;22.40;53.36;101046.69;4998533;28;20483;-39
2022/08/29 08:28:35;;;;;;;2.17;0.82;;;;;;;22.63;52.87;101045.00;4995606;28;20050;-42
2022/08/29 08:31:05;;;;;;;2.45;0.70;;;;;;;22.88;53.25;101054.59;4996292;28;20046;-41
2022/08/29 08:33:33;;;;;;;1.80;0.73;;;;;;;23.35;51.28;101051.91;4988243;28;20046;-43
2022/08/29 08:36:03;;;;;;;2.72;0.82;;;;;;;23.49;49.64;101048.72;4994501;28;20109;-42
2022/08/29 08:38:30;;;;;;;2.10;0.65;;;;;;;23.35;49.56;101054.56;4983677;28;20046;-48
2022/08/29 08:41:16;;;;;;;1.80;0.63;;;;;;;23.56;49.54;101046.66;4997485;28;20509;-47
2022/08/29 08:43:52;;;;;;;3.42;0.43;;;;;;;23.88;48.26;101055.00;4983136;28;20101;-46
2022/08/29 08:46:35;;;;;;;3.25;1.85;;;;;;;24.06;48.56;101049.84;4992639;28;20582;-42
2022/08/29 08:49:07;;;;;;;5.28;0.68;;;;;;;24.38;47.65;101060.81;4987806;28;20068;-45
2022/08/29 08:51:42;;;;;;;3.65;0.73;;;;;;;24.88;47.11;101055.94;4990576;28;20054;-42
2022/08/29 08:54:17;;;;;;;2.67;0.88;;;;;;;24.75;46.41;101047.69;4988650;28;20046;-44
2022/08/29 08:56:49;;;;;;;2.20;0.80;;;;;;;24.87;46.18;101053.38;4982746;28;20100;-41
2022/08/29 08:59:30;;;;;;;4.35;1.10;;;;;;;24.86;45.64;101057.78;5001114;28;20050;-41
2022/08/29 09:02:10;;;;;;;1.80;0.50;;;;;;;24.43;46.35;101050.03;4987033;28;20054;-41
2022/08/29 09:15:47;;;;;;;1.95;0.50;;;;;;;23.10;48.77;101052.84;5051927;27;20409;-47
2022/08/29 09:18:34;;;;;;;;;;;;;;;22.91;47.29;101051.84;5008372;28;20054;-39
2022/08/29 10:27:33;;;;;;;2.72;1.40;;;;;;;22.88;46.40;101036.13;5057355;27;20392;-46
2022/08/29 10:48:36;;;;;;;2.58;0.60;;;;;;;23.69;46.06;101038.19;5060300;27;20398;-40
2022/08/29 10:53:44;;;;;;;2.35;0.70;;;;;;;23.98;44.97;101033.47;5047643;27;20407;-40
2022/08/29 10:56:23;;;;;;;1.75;0.70;;;;;;;24.09;45.47;101025.91;5037284;28;20042;-45
2022/08/29 11:09:42;;;;;;;6.03;1.45;;;;;;;24.43;44.51;101027.97;5059733;27;20405;-45
2022/08/29 11:17:28;;;;;;;1.27;0.85;;;;;;;24.36;44.03;101033.56;5049165;27;20737;-43
2022/08/29 11:20:10;;;;;;;1.40;0.77;;;;;;;24.48;44.28;101025.97;5034803;28;20104;-45
2022/08/29 11:22:47;;;;;;;1.88;0.50;;;;;;;24.63;44.05;101035.84;5041756;28;20090;-49
2022/08/29 11:25:16;;;;;;;2.50;0.70;;;;;;;24.71;43.82;101032.00;5038555;28;20099;-48
2022/08/29 11:30:27;;;;;;;1.60;0.60;;;;;;;24.72;43.04;101034.56;5062659;28;20391;-47
2022/08/29 11:43:42;;;;;;;1.40;0.40;;;;;;;24.18;42.66;101029.09;5074429;27;20432;-43
2022/08/29 11:46:12;;;;;;;1.40;0.60;;;;;;;23.93;43.20;101027.50;5040988;28;20571;-42
2022/08/29 11:48:44;;;;;;;0.95;0.50;;;;;;;23.80;43.37;101030.69;5043176;28;20045;-44
2022/08/29 11:51:33;;;;;;;1.40;0.55;;;;;;;23.69;43.90;101027.63;5041909;28;20053;-39
2022/08/29 11:59:57;;;;;;;2.78;1.90;;;;;;;23.35;43.83;101025.50;5029948;27;20398;-48
2022/08/29 12:08:00;;;;;;;1.77;0.60;;;;;;;23.31;44.83;101008.00;5083964;27;20127;-44
2022/08/29 12:10:53;;;;;;;3.15;0.65;;;;;;;23.30;44.37;101011.53;5074075;28;20549;-47
2022/08/29 12:16:43;;;;;;;0.95;0.38;;;;;;;23.05;45.05;101012.56;5040163;27;20402;-47
2022/08/29 12:19:10;;;;;;;1.33;0.50;;;;;;;22.94;45.54;101020.03;5001008;28;20052;-38
2022/08/29 12:27:20;;;;;;;2.70;1.52;;;;;;;22.84;45.57;101015.09;5025799;27;20407;-47
2022/08/29 12:29:46;;;;;;;2.05;0.70;;;;;;;22.92;45.80;101012.19;5023905;28;20460;-44
2022/08/29 12:35:20;;;;;;;2.08;1.35;;;;;;;23.24;44.12;101006.53;5066768;27;20412;-47
2022/08/29 12:43:24;;;;;;;1.35;0.30;;;;;;;23.20;45.66;101004.94;5091164;27;20391;-44
2022/08/29 12:45:51;;;;;;;0.70;0.30;;;;;;;23.27;45.89;101009.03;5056322;28;20586;-42
2022/08/29 12:48:25;;;;;;;0.52;0.10;;;;;;;23.30;45.86;101003.63;5055757;28;20052;-48
2022/08/29 12:50:53;;;;;;;0.30;0.13;;;;;;;23.40;46.04;101011.22;5059025;28;20052;-46
2022/08/29 12:53:24;;;;;;;1.13;0.43;;;;;;;23.48;45.12;100998.53;5058108;28;20051;-43
2022/08/29 12:55:53;;;;;;;0.93;0.40;;;;;;;23.56;44.24;101001.72;5039193;28;20061;-47
2022/08/29 13:04:05;;;;;;;1.73;0.28;;;;;;;23.56;44.47;100985.84;5037233;28;20418;-44
2022/08/29 13:06:32;;;;;;;1.25;0.50;;;;;;;23.56;44.24;100990.25;5024359;28;20049;-45
2022/08/29 13:08:59;;;;;;;4.03;0.22;;;;;;;23.64;44.89;100984.66;5023845;28;20991;-44
2022/08/29 13:11:29;;;;;;;0.93;0.30;;;;;;;23.69;44.65;100980.91;5024730;28;20049;-40
2022/08/29 13:14:11;;;;;;;1.58;0.30;;;;;;;23.68;44.24;100988.91;5028287;28;20057;-43
2022/08/29 13:16:38;;;;;;;0.57;0.40;;;;;;;23.70;44.33;100976.44;5027612;28;20141;-42
2022/08/29 13:19:18;;;;;;;1.50;0.75;;;;;;;23.72;44.40;100987.84;5027432;28;20120;-44
2022/08/29 13:21:45;;;;;;;0.75;0.28;;;;;;;23.77;44.61;100980.53;5029284;28;20497;-41
2022/08/29 13:24:18;;;;;;;0.85;0.52;;;;;;;23.82;44.15;100978.59;5025427;28;20085;-42
2022/08/29 13:26:56;;;;;;;0.70;0.40;;;;;;;23.81;44.24;100976.84;5030035;28;20052;-42
2022/08/29 13:32:25;;;;;;;2.67;0.30;;;;;;;23.65;44.26;100970.50;5013827;28;20403;-43
2022/08/29 13:37:38;;;;;;;0.90;0.40;;;;;;;23.59;45.22;100975.16;5036391;28;20413;-41
2022/08/29 13:40:30;;;;;;;0.40;0.30;;;;;;;23.41;45.74;100976.78;5019366;28;20419;-45
2022/08/29 13:42:58;;;;;;;0.40;0.20;;;;;;;23.34;46.29;100981.41;5035147;28;20042;-46
2022/08/29 13:45:25;;;;;;;1.70;0.75;;;;;;;23.27;46.26;100982.59;5014862;28;20371;-47
2022/08/29 13:47:58;;;;;;;0.40;0.20;;;;;;;23.25;46.49;100976.53;5013267;28;20053;-42
2022/08/29 13:50:26;;;;;;;2.38;0.17;;;;;;;23.32;46.74;100972.72;5018027;28;20057;-43
2022/08/29 13:52:54;;;;;;;0.20;0.20;;;;;;;23.42;46.27;100962.66;5019740;28;20140;-46
2022/08/29 13:55:21;;;;;;;0.52;0.22;;;;;;;23.53;46.29;100964.81;5016793;28;20486;-42
2022/08/29 13:57:51;;;;;;;0.38;0.25;;;;;;;23.61;45.13;100962.69;5017202;28;20053;-43
2022/08/29 14:00:19;;;;;;;1.70;0.40;;;;;;;23.65;45.14;100954.66;5017617;28;20061;-40
2022/08/29 14:03:00;;;;;;;2.25;0.50;;;;;;;23.64;45.14;100956.41;5016684;28;20735;-40
2022/08/29 14:05:27;;;;;;;0.40;0.22;;;;;;;23.58;45.50;100957.53;5013275;28;20056;-38
2022/08/29 14:07:53;;;;;;;0.35;0.20;;;;;;;23.47;45.33;100962.47;5011821;28;20046;-43
2022/08/29 14:10:20;;;;;;;0.45;0.45;;;;;;;23.42;45.83;100961.78;5009466;28;20112;-46
2022/08/29 14:12:47;;;;;;;0.28;0.20;;;;;;;23.36;45.24;100947.91;5014692;28;20058;-44
2022/08/29 14:15:16;;;;;;;1.35;0.20;;;;;;;23.35;45.91;100956.78;5009068;28;20045;-41
2022/08/29 14:17:45;;;;;;;1.83;0.52;;;;;;;23.36;45.68;100958.47;5015401;28;20041;-47
2022/08/29 14:20:13;;;;;;;0.38;0.38;;;;;;;23.36;44.56;100963.75;5010160;28;20045;-40
2022/08/29 14:22:40;;;;;;;0.50;0.20;;;;;;;23.35;44.84;100956.78;5007470;28;20053;-41
2022/08/29 14:25:09;;;;;;;0.65;0.65;;;;;;;23.32;44.85;100951.56;5007486;28;20113;-44
2022/08/29 14:27:37;;;;;;;0.40;0.40;;;;;;;23.29;44.81;100956.97;5008574;28;20093;-41
2022/08/29 14:30:07;;;;;;;0.90;0.10;;;;;;;23.23;44.56;100951.94;4996879;28;20109;-46
2022/08/29 14:32:34;;;;;;;0.40;0.20;;;;;;;23.14;44.42;100954.97;5007314;28;20057;-44
2022/08/29 14:35:01;;;;;;;0.68;0.10;;;;;;;23.08;44.45;100949.03;5009357;28;20076;-46